sensor_id;sensor_type;location;lat;lon;timestamp;P1;durP1;ratioP1;P2;durP2;ratioP2
3943;SDS011;1986;52.546;13.428;2024-03-02T00:01:23;0.40;;;0.40;;
3943;SDS011;1986;52.546;13.428;2024-03-02T00:04:04;0.40;;;0.40;;
3943;SDS011;1986;52.546;13.428;2024-03-02T00:06:36;0.30;;;0.30;;
3943;SDS011;1986;52.546;13.428;2024-03-02T00:09:11;0.30;;;0.30;;
3943;SDS011;1986;52.546;13.428;2024-03-02T00:11:48;0.30;;;0.30;;
3943;SDS011;1986;52.546;13.428;2024-03-02T00:14:16;0.30;;;0.30;;
3943;SDS011;1986;52.546;13.428;2024-03-02T00:16:44;0.30;;;0.30;;
3943;SDS011;1986;52.546;13.428;2024-03-02T00:19:11;0.30;;;0.30;;
3943;SDS011;1986;52.546;13.428;2024-03-02T00:21:40;0.30;;;0.30;;
3943;SDS011;1986;52.546;13.428;2024-03-02T00:24:18;0.30;;;0.30;;
3943;SDS011;1986;52.546;13.428;2024-03-02T00:26:49;0.30;;;0.30;;
3943;SDS011;1986;52.546;13.428;2024-03-02T00:29:16;0.30;;;0.30;;
3943;SDS011;1986;52.546;13.428;2024-03-02T00:31:47;0.30;;;0.30;;
3943;SDS011;1986;52.546;13.428;2024-03-02T00:34:14;0.30;;;0.30;;
3943;SDS011;1986;52.546;13.428;2024-03-02T00:36:42;0.30;;;0.30;;
3943;SDS011;1986;52.546;13.428;2024-03-02T00:39:11;0.30;;;0.30;;
3943;SDS011;1986;52.546;13.428;2024-03-02T00:41:42;0.30;;;0.30;;
3943;SDS011;1986;52.546;13.428;2024-03-02T00:44:11;0.30;;;0.30;;
3943;SDS011;1986;52.546;13.428;2024-03-02T00:46:39;0.30;;;0.30;;
3943;SDS011;1986;52.546;13.428;2024-03-02T00:49:11;0.40;;;0.40;;
3943;SDS011;1986;52.546;13.428;2024-03-02T00:51:46;0.40;;;0.40;;
3943;SDS011;1986;52.546;13.428;2024-03-02T00:54:18;0.30;;;0.30;;
3943;SDS011;1986;52.546;13.428;2024-03-02T00:56:48;0.37;;;0.37;;
3943;SDS011;1986;52.546;13.428;2024-03-02T00:59:20;0.40;;;0.40;;
3943;SDS011;1986;52.546;13.428;2024-03-02T01:01:50;0.30;;;0.30;;
3943;SDS011;1986;52.546;13.428;2024-03-02T01:04:24;0.40;;;0.40;;
3943;SDS011;1986;52.546;13.428;2024-03-02T01:06:52;0.30;;;0.30;;
3943;SDS011;1986;52.546;13.428;2024-03-02T01:09:23;0.40;;;0.40;;
3943;SDS011;1986;52.546;13.428;2024-03-02T01:11:52;0.40;;;0.40;;
3943;SDS011;1986;52.546;13.428;2024-03-02T01:14:19;0.40;;;0.40;;
3943;SDS011;1986;52.546;13.428;2024-03-02T01:16:47;0.40;;;0.40;;
3943;SDS011;1986;52.546;13.428;2024-03-02T01:19:16;0.40;;;0.40;;
3943;SDS011;1986;52.546;13.428;2024-03-02T01:21:43;0.40;;;0.40;;
3943;SDS011;1986;52.546;13.428;2024-03-02T01:24:11;0.30;;;0.30;;
3943;SDS011;1986;52.546;13.428;2024-03-02T01:26:39;0.30;;;0.30;;
3943;SDS011;1986;52.546;13.428;2024-03-02T01:29:07;0.30;;;0.30;;
3943;SDS011;1986;52.546;13.428;2024-03-02T01:31:35;0.27;;;0.27;;
3943;SDS011;1986;52.546;13.428;2024-03-02T01:34:02;0.20;;;0.20;;
3943;SDS011;1986;52.546;13.428;2024-03-02T01:36:31;0.30;;;0.30;;
3943;SDS011;1986;52.546;13.428;2024-03-02T01:38:57;0.30;;;0.30;;
3943;SDS011;1986;52.546;13.428;2024-03-02T01:41:27;0.20;;;0.20;;
3943;SDS011;1986;52.546;13.428;2024-03-02T01:43:56;0.60;;;0.60;;
3943;SDS011;1986;52.546;13.428;2024-03-02T01:46:25;0.60;;;0.60;;
3943;SDS011;1986;52.546;13.428;2024-03-02T01:48:52;0.80;;;0.80;;
3943;SDS011;1986;52.546;13.428;2024-03-02T01:51:19;0.80;;;0.80;;
3943;SDS011;1986;52.546;13.428;2024-03-02T01:53:47;0.80;;;0.80;;
3943;SDS011;1986;52.546;13.428;2024-03-02T01:56:15;1.20;;;1.20;;
3943;SDS011;1986;52.546;13.428;2024-03-02T01:58:42;1.20;;;1.20;;
3943;SDS011;1986;52.546;13.428;2024-03-02T02:01:11;1.50;;;1.50;;
3943;SDS011;1986;52.546;13.428;2024-03-02T02:03:38;1.50;;;1.50;;
3943;SDS011;1986;52.546;13.428;2024-03-02T02:06:06;1.57;;;1.57;;
3943;SDS011;1986;52.546;13.428;2024-03-02T02:08:34;2.10;;;2.10;;
3943;SDS011;1986;52.546;13.428;2024-03-02T02:11:03;3.40;;;3.40;;
3943;SDS011;1986;52.546;13.428;2024-03-02T02:13:30;3.67;;;3.67;;
3943;SDS011;1986;52.546;13.428;2024-03-02T02:16:04;4.07;;;4.07;;
3943;SDS011;1986;52.546;13.428;2024-03-02T02:18:33;4.50;;;4.50;;
3943;SDS011;1986;52.546;13.428;2024-03-02T02:21:01;6.20;;;6.20;;
3943;SDS011;1986;52.546;13.428;2024-03-02T02:23:29;7.40;;;7.40;;
3943;SDS011;1986;52.546;13.428;2024-03-02T02:25:56;6.80;;;6.80;;
3943;SDS011;1986;52.546;13.428;2024-03-02T02:28:23;5.80;;;5.80;;
3943;SDS011;1986;52.546;13.428;2024-03-02T02:30:51;5.50;;;5.50;;
3943;SDS011;1986;52.546;13.428;2024-03-02T02:33:18;5.63;;;5.63;;
3943;SDS011;1986;52.546;13.428;2024-03-02T02:35:45;5.23;;;5.23;;
3943;SDS011;1986;52.546;13.428;2024-03-02T02:38:12;4.67;;;4.67;;
3943;SDS011;1986;52.546;13.428;2024-03-02T02:40:42;4.90;;;4.90;;
3943;SDS011;1986;52.546;13.428;2024-03-02T02:43:10;4.97;;;4.97;;
3943;SDS011;1986;52.546;13.428;2024-03-02T02:45:37;5.00;;;5.00;;
3943;SDS011;1986;52.546;13.428;2024-03-02T02:48:04;4.37;;;4.37;;
3943;SDS011;1986;52.546;13.428;2024-03-02T02:50:33;3.90;;;3.90;;
3943;SDS011;1986;52.546;13.428;2024-03-02T02:53:00;4.10;;;4.10;;
3943;SDS011;1986;52.546;13.428;2024-03-02T02:55:27;4.33;;;4.33;;
3943;SDS011;1986;52.546;13.428;2024-03-02T02:57:55;4.50;;;4.50;;
3943;SDS011;1986;52.546;13.428;2024-03-02T03:00:23;3.73;;;3.73;;
3943;SDS011;1986;52.546;13.428;2024-03-02T03:02:52;3.60;;;3.60;;
3943;SDS011;1986;52.546;13.428;2024-03-02T03:05:19;3.40;;;3.40;;
3943;SDS011;1986;52.546;13.428;2024-03-02T03:07:47;3.27;;;3.27;;
3943;SDS011;1986;52.546;13.428;2024-03-02T03:10:15;3.50;;;3.50;;
3943;SDS011;1986;52.546;13.428;2024-03-02T03:12:42;3.20;;;3.20;;
3943;SDS011;1986;52.546;13.428;2024-03-02T03:15:11;3.00;;;3.00;;
3943;SDS011;1986;52.546;13.428;2024-03-02T03:17:39;3.10;;;3.10;;
3943;SDS011;1986;52.546;13.428;2024-03-02T03:20:06;2.97;;;2.97;;
3943;SDS011;1986;52.546;13.428;2024-03-02T03:22:37;2.73;;;2.73;;
3943;SDS011;1986;52.546;13.428;2024-03-02T03:25:06;2.83;;;2.83;;
3943;SDS011;1986;52.546;13.428;2024-03-02T03:27:34;2.50;;;2.50;;
3943;SDS011;1986;52.546;13.428;2024-03-02T03:30:03;2.60;;;2.60;;
3943;SDS011;1986;52.546;13.428;2024-03-02T03:32:33;2.60;;;2.60;;
3943;SDS011;1986;52.546;13.428;2024-03-02T03:35:00;2.70;;;2.70;;
3943;SDS011;1986;52.546;13.428;2024-03-02T03:37:27;2.97;;;2.97;;
3943;SDS011;1986;52.546;13.428;2024-03-02T03:39:57;3.03;;;3.03;;
3943;SDS011;1986;52.546;13.428;2024-03-02T03:42:24;3.33;;;3.33;;
3943;SDS011;1986;52.546;13.428;2024-03-02T03:44:51;2.90;;;2.90;;
3943;SDS011;1986;52.546;13.428;2024-03-02T03:47:18;2.90;;;2.90;;
3943;SDS011;1986;52.546;13.428;2024-03-02T03:49:47;2.57;;;2.57;;
3943;SDS011;1986;52.546;13.428;2024-03-02T03:52:14;2.50;;;2.50;;
3943;SDS011;1986;52.546;13.428;2024-03-02T03:54:41;2.40;;;2.40;;
3943;SDS011;1986;52.546;13.428;2024-03-02T03:57:09;1.90;;;1.90;;
3943;SDS011;1986;52.546;13.428;2024-03-02T03:59:37;1.40;;;1.40;;
3943;SDS011;1986;52.546;13.428;2024-03-02T04:02:04;1.50;;;1.50;;
3943;SDS011;1986;52.546;13.428;2024-03-02T04:04:31;1.40;;;1.40;;
3943;SDS011;1986;52.546;13.428;2024-03-02T04:07:00;1.30;;;1.30;;
3943;SDS011;1986;52.546;13.428;2024-03-02T04:09:27;1.17;;;1.17;;
3943;SDS011;1986;52.546;13.428;2024-03-02T04:11:53;1.20;;;1.20;;
3943;SDS011;1986;52.546;13.428;2024-03-02T04:14:29;0.90;;;0.90;;
3943;SDS011;1986;52.546;13.428;2024-03-02T04:16:56;0.80;;;0.80;;
3943;SDS011;1986;52.546;13.428;2024-03-02T04:19:23;0.80;;;0.80;;
3943;SDS011;1986;52.546;13.428;2024-03-02T04:21:50;0.80;;;0.80;;
3943;SDS011;1986;52.546;13.428;2024-03-02T04:24:18;0.80;;;0.80;;
3943;SDS011;1986;52.546;13.428;2024-03-02T04:26:45;0.90;;;0.90;;
3943;SDS011;1986;52.546;13.428;2024-03-02T04:29:15;0.90;;;0.90;;
3943;SDS011;1986;52.546;13.428;2024-03-02T04:31:42;0.83;;;0.83;;
3943;SDS011;1986;52.546;13.428;2024-03-02T04:34:10;1.00;;;1.00;;
3943;SDS011;1986;52.546;13.428;2024-03-02T04:36:39;1.00;;;1.00;;
3943;SDS011;1986;52.546;13.428;2024-03-02T04:39:05;0.90;;;0.90;;
3943;SDS011;1986;52.546;13.428;2024-03-02T04:41:36;0.80;;;0.80;;
3943;SDS011;1986;52.546;13.428;2024-03-02T04:44:04;0.70;;;0.70;;
3943;SDS011;1986;52.546;13.428;2024-03-02T04:46:33;0.90;;;0.90;;
3943;SDS011;1986;52.546;13.428;2024-03-02T04:49:01;0.80;;;0.80;;
3943;SDS011;1986;52.546;13.428;2024-03-02T04:51:28;0.90;;;0.90;;
3943;SDS011;1986;52.546;13.428;2024-03-02T04:53:56;1.00;;;1.00;;
3943;SDS011;1986;52.546;13.428;2024-03-02T04:56:25;0.80;;;0.80;;
3943;SDS011;1986;52.546;13.428;2024-03-02T04:59:10;0.83;;;0.83;;
3943;SDS011;1986;52.546;13.428;2024-03-02T05:01:37;0.70;;;0.70;;
3943;SDS011;1986;52.546;13.428;2024-03-02T05:04:06;1.20;;;1.20;;
3943;SDS011;1986;52.546;13.428;2024-03-02T05:06:34;0.90;;;0.90;;
3943;SDS011;1986;52.546;13.428;2024-03-02T05:09:00;1.20;;;1.20;;
3943;SDS011;1986;52.546;13.428;2024-03-02T05:11:28;1.40;;;1.40;;
3943;SDS011;1986;52.546;13.428;2024-03-02T05:14:19;1.20;;;1.20;;
3943;SDS011;1986;52.546;13.428;2024-03-02T05:16:46;1.00;;;1.00;;
3943;SDS011;1986;52.546;13.428;2024-03-02T05:19:12;1.03;;;1.03;;
3943;SDS011;1986;52.546;13.428;2024-03-02T05:21:39;1.00;;;1.00;;
3943;SDS011;1986;52.546;13.428;2024-03-02T05:24:07;1.00;;;1.00;;
3943;SDS011;1986;52.546;13.428;2024-03-02T05:26:36;1.00;;;1.00;;
3943;SDS011;1986;52.546;13.428;2024-03-02T05:29:03;1.03;;;1.03;;
3943;SDS011;1986;52.546;13.428;2024-03-02T05:31:34;1.30;;;1.30;;
3943;SDS011;1986;52.546;13.428;2024-03-02T05:34:01;1.10;;;1.10;;
3943;SDS011;1986;52.546;13.428;2024-03-02T05:36:28;1.20;;;1.20;;
3943;SDS011;1986;52.546;13.428;2024-03-02T05:38:56;1.40;;;1.40;;
3943;SDS011;1986;52.546;13.428;2024-03-02T05:41:23;1.70;;;1.70;;
3943;SDS011;1986;52.546;13.428;2024-03-02T05:43:50;1.93;;;1.93;;
3943;SDS011;1986;52.546;13.428;2024-03-02T05:46:19;1.63;;;1.63;;
3943;SDS011;1986;52.546;13.428;2024-03-02T05:48:48;1.90;;;1.90;;
3943;SDS011;1986;52.546;13.428;2024-03-02T05:51:17;1.60;;;1.60;;
3943;SDS011;1986;52.546;13.428;2024-03-02T05:53:44;1.70;;;1.70;;
3943;SDS011;1986;52.546;13.428;2024-03-02T05:56:13;2.00;;;2.00;;
3943;SDS011;1986;52.546;13.428;2024-03-02T05:58:40;1.90;;;1.90;;
3943;SDS011;1986;52.546;13.428;2024-03-02T06:01:24;2.23;;;2.23;;
3943;SDS011;1986;52.546;13.428;2024-03-02T06:03:55;1.90;;;1.90;;
3943;SDS011;1986;52.546;13.428;2024-03-02T06:06:22;1.70;;;1.70;;
3943;SDS011;1986;52.546;13.428;2024-03-02T06:08:49;2.00;;;2.00;;
3943;SDS011;1986;52.546;13.428;2024-03-02T06:11:16;1.70;;;1.70;;
3943;SDS011;1986;52.546;13.428;2024-03-02T06:13:44;2.23;;;2.23;;
3943;SDS011;1986;52.546;13.428;2024-03-02T06:16:13;2.40;;;2.40;;
3943;SDS011;1986;52.546;13.428;2024-03-02T06:18:40;1.90;;;1.90;;
3943;SDS011;1986;52.546;13.428;2024-03-02T06:21:09;2.17;;;2.17;;
3943;SDS011;1986;52.546;13.428;2024-03-02T06:23:36;2.53;;;2.53;;
3943;SDS011;1986;52.546;13.428;2024-03-02T06:26:03;2.50;;;2.50;;
3943;SDS011;1986;52.546;13.428;2024-03-02T06:28:31;2.83;;;2.83;;
3943;SDS011;1986;52.546;13.428;2024-03-02T06:31:01;2.80;;;2.80;;
3943;SDS011;1986;52.546;13.428;2024-03-02T06:33:29;2.80;;;2.80;;
3943;SDS011;1986;52.546;13.428;2024-03-02T06:35:56;3.23;;;3.23;;
3943;SDS011;1986;52.546;13.428;2024-03-02T06:38:24;3.10;;;3.10;;
3943;SDS011;1986;52.546;13.428;2024-03-02T06:40:51;2.70;;;2.70;;
3943;SDS011;1986;52.546;13.428;2024-03-02T06:43:18;2.40;;;2.40;;
3943;SDS011;1986;52.546;13.428;2024-03-02T06:45:48;2.70;;;2.70;;
3943;SDS011;1986;52.546;13.428;2024-03-02T06:48:15;2.77;;;2.77;;
3943;SDS011;1986;52.546;13.428;2024-03-02T06:50:46;2.60;;;2.60;;
3943;SDS011;1986;52.546;13.428;2024-03-02T06:53:13;2.10;;;2.10;;
3943;SDS011;1986;52.546;13.428;2024-03-02T06:55:44;1.60;;;1.60;;
3943;SDS011;1986;52.546;13.428;2024-03-02T06:58:11;1.10;;;1.10;;
3943;SDS011;1986;52.546;13.428;2024-03-02T07:00:38;1.20;;;1.20;;
3943;SDS011;1986;52.546;13.428;2024-03-02T07:03:05;1.00;;;1.00;;
3943;SDS011;1986;52.546;13.428;2024-03-02T07:05:32;1.03;;;1.03;;
3943;SDS011;1986;52.546;13.428;2024-03-02T07:07:59;0.90;;;0.90;;
3943;SDS011;1986;52.546;13.428;2024-03-02T07:10:26;0.80;;;0.80;;
3943;SDS011;1986;52.546;13.428;2024-03-02T07:12:55;0.70;;;0.70;;
3943;SDS011;1986;52.546;13.428;2024-03-02T07:15:23;0.67;;;0.67;;
3943;SDS011;1986;52.546;13.428;2024-03-02T07:18:02;0.50;;;0.50;;
3943;SDS011;1986;52.546;13.428;2024-03-02T07:20:29;0.50;;;0.50;;
3943;SDS011;1986;52.546;13.428;2024-03-02T07:22:56;0.40;;;0.40;;
3943;SDS011;1986;52.546;13.428;2024-03-02T07:25:23;0.40;;;0.40;;
3943;SDS011;1986;52.546;13.428;2024-03-02T07:27:52;0.30;;;0.30;;
3943;SDS011;1986;52.546;13.428;2024-03-02T07:30:21;0.30;;;0.30;;
3943;SDS011;1986;52.546;13.428;2024-03-02T07:32:49;0.30;;;0.30;;
3943;SDS011;1986;52.546;13.428;2024-03-02T07:35:19;0.20;;;0.20;;
3943;SDS011;1986;52.546;13.428;2024-03-02T07:37:47;0.10;;;0.10;;
3943;SDS011;1986;52.546;13.428;2024-03-02T07:40:14;0.10;;;0.10;;
3943;SDS011;1986;52.546;13.428;2024-03-02T07:42:41;0.10;;;0.10;;
3943;SDS011;1986;52.546;13.428;2024-03-02T07:45:09;0.10;;;0.10;;
3943;SDS011;1986;52.546;13.428;2024-03-02T07:47:40;0.10;;;0.10;;
3943;SDS011;1986;52.546;13.428;2024-03-02T07:50:07;0.00;;;0.00;;
3943;SDS011;1986;52.546;13.428;2024-03-02T07:52:37;0.00;;;0.00;;
3943;SDS011;1986;52.546;13.428;2024-03-02T07:55:06;0.00;;;0.00;;
3943;SDS011;1986;52.546;13.428;2024-03-02T07:57:35;0.00;;;0.00;;
3943;SDS011;1986;52.546;13.428;2024-03-02T08:00:04;0.00;;;0.00;;
3943;SDS011;1986;52.546;13.428;2024-03-02T08:02:35;0.00;;;0.00;;
3943;SDS011;1986;52.546;13.428;2024-03-02T08:05:03;0.00;;;0.00;;
3943;SDS011;1986;52.546;13.428;2024-03-02T08:07:32;0.00;;;0.00;;
3943;SDS011;1986;52.546;13.428;2024-03-02T08:10:01;0.00;;;0.00;;
3943;SDS011;1986;52.546;13.428;2024-03-02T08:12:28;0.00;;;0.00;;
3943;SDS011;1986;52.546;13.428;2024-03-02T08:14:56;0.00;;;0.00;;
3943;SDS011;1986;52.546;13.428;2024-03-02T08:17:23;0.00;;;0.00;;
3943;SDS011;1986;52.546;13.428;2024-03-02T08:19:51;0.00;;;0.00;;
3943;SDS011;1986;52.546;13.428;2024-03-02T08:22:23;0.00;;;0.00;;
3943;SDS011;1986;52.546;13.428;2024-03-02T08:24:53;0.00;;;0.00;;
3943;SDS011;1986;52.546;13.428;2024-03-02T08:27:20;0.00;;;0.00;;
3943;SDS011;1986;52.546;13.428;2024-03-02T08:29:47;0.00;;;0.00;;
3943;SDS011;1986;52.546;13.428;2024-03-02T08:32:19;0.00;;;0.00;;
3943;SDS011;1986;52.546;13.428;2024-03-02T08:34:48;0.00;;;0.00;;
3943;SDS011;1986;52.546;13.428;2024-03-02T08:37:15;0.00;;;0.00;;
3943;SDS011;1986;52.546;13.428;2024-03-02T08:39:44;0.00;;;0.00;;
3943;SDS011;1986;52.546;13.428;2024-03-02T08:42:11;0.00;;;0.00;;
3943;SDS011;1986;52.546;13.428;2024-03-02T08:44:39;0.00;;;0.00;;
3943;SDS011;1986;52.546;13.428;2024-03-02T08:47:09;0.00;;;0.00;;
3943;SDS011;1986;52.546;13.428;2024-03-02T08:49:36;0.00;;;0.00;;
3943;SDS011;1986;52.546;13.428;2024-03-02T08:52:06;0.00;;;0.00;;
3943;SDS011;1986;52.546;13.428;2024-03-02T08:54:35;0.00;;;0.00;;
3943;SDS011;1986;52.546;13.428;2024-03-02T08:57:18;0.00;;;0.00;;
3943;SDS011;1986;52.546;13.428;2024-03-02T08:59:47;0.00;;;0.00;;
3943;SDS011;1986;52.546;13.428;2024-03-02T09:02:18;0.00;;;0.00;;
3943;SDS011;1986;52.546;13.428;2024-03-02T09:04:46;0.00;;;0.00;;
3943;SDS011;1986;52.546;13.428;2024-03-02T09:07:17;0.00;;;0.00;;
3943;SDS011;1986;52.546;13.428;2024-03-02T09:09:49;0.00;;;0.00;;
3943;SDS011;1986;52.546;13.428;2024-03-02T09:12:20;0.10;;;0.10;;
3943;SDS011;1986;52.546;13.428;2024-03-02T09:14:48;0.00;;;0.00;;
3943;SDS011;1986;52.546;13.428;2024-03-02T09:17:17;0.10;;;0.10;;
3943;SDS011;1986;52.546;13.428;2024-03-02T09:19:44;0.00;;;0.00;;
3943;SDS011;1986;52.546;13.428;2024-03-02T09:22:12;0.10;;;0.10;;
3943;SDS011;1986;52.546;13.428;2024-03-02T09:24:40;0.10;;;0.10;;
3943;SDS011;1986;52.546;13.428;2024-03-02T09:27:09;0.10;;;0.10;;
3943;SDS011;1986;52.546;13.428;2024-03-02T09:29:38;0.10;;;0.10;;
3943;SDS011;1986;52.546;13.428;2024-03-02T09:32:05;0.10;;;0.10;;
3943;SDS011;1986;52.546;13.428;2024-03-02T09:34:35;0.10;;;0.10;;
3943;SDS011;1986;52.546;13.428;2024-03-02T09:37:04;0.20;;;0.20;;
3943;SDS011;1986;52.546;13.428;2024-03-02T09:39:47;0.20;;;0.20;;
3943;SDS011;1986;52.546;13.428;2024-03-02T09:42:30;0.20;;;0.20;;
3943;SDS011;1986;52.546;13.428;2024-03-02T09:45:04;0.30;;;0.30;;
3943;SDS011;1986;52.546;13.428;2024-03-02T09:47:36;0.30;;;0.30;;
3943;SDS011;1986;52.546;13.428;2024-03-02T09:50:04;0.30;;;0.30;;
3943;SDS011;1986;52.546;13.428;2024-03-02T09:56:05;0.40;;;0.40;;
3943;SDS011;1986;52.546;13.428;2024-03-02T09:58:44;0.60;;;0.60;;
3943;SDS011;1986;52.546;13.428;2024-03-02T10:01:14;0.70;;;0.70;;
3943;SDS011;1986;52.546;13.428;2024-03-02T10:04:00;0.70;;;0.70;;
3943;SDS011;1986;52.546;13.428;2024-03-02T10:06:28;0.80;;;0.80;;
3943;SDS011;1986;52.546;13.428;2024-03-02T10:12:04;1.40;;;1.40;;
3943;SDS011;1986;52.546;13.428;2024-03-02T10:14:38;1.70;;;1.70;;
3943;SDS011;1986;52.546;13.428;2024-03-02T10:20:29;1.60;;;1.60;;
3943;SDS011;1986;52.546;13.428;2024-03-02T10:23:12;2.00;;;2.00;;
3943;SDS011;1986;52.546;13.428;2024-03-02T10:25:54;2.37;;;2.37;;
3943;SDS011;1986;52.546;13.428;2024-03-02T10:28:28;2.90;;;2.90;;
3943;SDS011;1986;52.546;13.428;2024-03-02T10:30:56;3.00;;;3.00;;
3943;SDS011;1986;52.546;13.428;2024-03-02T10:33:24;3.30;;;3.30;;
3943;SDS011;1986;52.546;13.428;2024-03-02T10:35:53;3.70;;;3.70;;
3943;SDS011;1986;52.546;13.428;2024-03-02T10:38:21;4.00;;;4.00;;
3943;SDS011;1986;52.546;13.428;2024-03-02T10:40:58;3.80;;;3.80;;
3943;SDS011;1986;52.546;13.428;2024-03-02T10:43:30;3.90;;;3.90;;
3943;SDS011;1986;52.546;13.428;2024-03-02T10:46:04;5.13;;;5.13;;
3943;SDS011;1986;52.546;13.428;2024-03-02T10:48:39;5.90;;;5.90;;
3943;SDS011;1986;52.546;13.428;2024-03-02T10:51:20;6.63;;;6.63;;
3943;SDS011;1986;52.546;13.428;2024-03-02T10:56:31;7.50;;;7.50;;
3943;SDS011;1986;52.546;13.428;2024-03-02T10:59:10;7.10;;;7.10;;
3943;SDS011;1986;52.546;13.428;2024-03-02T11:04:20;7.90;;;7.90;;
3943;SDS011;1986;52.546;13.428;2024-03-02T11:09:49;8.50;;;8.40;;
3943;SDS011;1986;52.546;13.428;2024-03-02T11:12:35;8.63;;;8.53;;
3943;SDS011;1986;52.546;13.428;2024-03-02T11:15:21;8.73;;;8.63;;
3943;SDS011;1986;52.546;13.428;2024-03-02T11:18:09;8.20;;;8.10;;
3943;SDS011;1986;52.546;13.428;2024-03-02T11:20:41;8.20;;;8.10;;
3943;SDS011;1986;52.546;13.428;2024-03-02T11:23:18;8.73;;;8.63;;
3943;SDS011;1986;52.546;13.428;2024-03-02T11:26:16;9.30;;;9.20;;
3943;SDS011;1986;52.546;13.428;2024-03-02T11:28:50;9.60;;;9.50;;
3943;SDS011;1986;52.546;13.428;2024-03-02T11:34:40;9.90;;;9.80;;
3943;SDS011;1986;52.546;13.428;2024-03-02T11:37:21;10.10;;;10.00;;
3943;SDS011;1986;52.546;13.428;2024-03-02T11:40:14;10.90;;;10.80;;
3943;SDS011;1986;52.546;13.428;2024-03-02T11:42:58;10.87;;;10.77;;
3943;SDS011;1986;52.546;13.428;2024-03-02T11:48:29;11.10;;;11.00;;
3943;SDS011;1986;52.546;13.428;2024-03-02T11:51:23;11.70;;;11.50;;
3943;SDS011;1986;52.546;13.428;2024-03-02T11:54:46;12.10;;;11.90;;
3943;SDS011;1986;52.546;13.428;2024-03-02T12:00:16;12.70;;;12.50;;
3943;SDS011;1986;52.546;13.428;2024-03-02T12:03:00;12.90;;;12.60;;
3943;SDS011;1986;52.546;13.428;2024-03-02T12:05:33;13.20;;;12.90;;
3943;SDS011;1986;52.546;13.428;2024-03-02T12:08:16;13.60;;;13.30;;
3943;SDS011;1986;52.546;13.428;2024-03-02T12:11:03;13.93;;;13.63;;
3943;SDS011;1986;52.546;13.428;2024-03-02T12:20:54;13.60;;;13.30;;
3943;SDS011;1986;52.546;13.428;2024-03-02T12:23:28;14.30;;;13.90;;
3943;SDS011;1986;52.546;13.428;2024-03-02T12:26:17;14.10;;;13.70;;
3943;SDS011;1986;52.546;13.428;2024-03-02T12:28:49;14.20;;;13.80;;
3943;SDS011;1986;52.546;13.428;2024-03-02T12:31:32;14.90;;;14.40;;
3943;SDS011;1986;52.546;13.428;2024-03-02T12:34:03;15.23;;;14.73;;
3943;SDS011;1986;52.546;13.428;2024-03-02T12:39:44;15.20;;;14.70;;
3943;SDS011;1986;52.546;13.428;2024-03-02T12:42:18;15.10;;;14.60;;
3943;SDS011;1986;52.546;13.428;2024-03-02T12:44:50;15.20;;;14.70;;
3943;SDS011;1986;52.546;13.428;2024-03-02T12:47:22;15.30;;;14.80;;
3943;SDS011;1986;52.546;13.428;2024-03-02T12:50:07;15.20;;;14.70;;
3943;SDS011;1986;52.546;13.428;2024-03-02T12:52:39;15.30;;;14.80;;
3943;SDS011;1986;52.546;13.428;2024-03-02T12:55:10;15.60;;;15.10;;
3943;SDS011;1986;52.546;13.428;2024-03-02T12:57:46;15.70;;;15.10;;
3943;SDS011;1986;52.546;13.428;2024-03-02T13:00:14;15.40;;;14.90;;
3943;SDS011;1986;52.546;13.428;2024-03-02T13:02:46;15.43;;;14.93;;
3943;SDS011;1986;52.546;13.428;2024-03-02T13:05:15;15.80;;;15.20;;
3943;SDS011;1986;52.546;13.428;2024-03-02T13:07:50;16.70;;;16.00;;
3943;SDS011;1986;52.546;13.428;2024-03-02T13:10:19;16.03;;;15.43;;
3943;SDS011;1986;52.546;13.428;2024-03-02T13:12:51;16.00;;;15.40;;
3943;SDS011;1986;52.546;13.428;2024-03-02T13:15:25;16.20;;;15.60;;
3943;SDS011;1986;52.546;13.428;2024-03-02T13:20:54;16.83;;;16.20;;
3943;SDS011;1986;52.546;13.428;2024-03-02T13:23:33;17.10;;;16.40;;
3943;SDS011;1986;52.546;13.428;2024-03-02T13:26:16;17.20;;;16.50;;
3943;SDS011;1986;52.546;13.428;2024-03-02T13:28:50;17.00;;;16.30;;
3943;SDS011;1986;52.546;13.428;2024-03-02T13:31:22;17.30;;;16.60;;
3943;SDS011;1986;52.546;13.428;2024-03-02T13:33:58;17.50;;;16.70;;
3943;SDS011;1986;52.546;13.428;2024-03-02T13:36:39;18.00;;;17.20;;
3943;SDS011;1986;52.546;13.428;2024-03-02T13:39:14;17.63;;;16.83;;
3943;SDS011;1986;52.546;13.428;2024-03-02T13:41:49;17.90;;;17.10;;
3943;SDS011;1986;52.546;13.428;2024-03-02T13:44:22;17.80;;;17.00;;
3943;SDS011;1986;52.546;13.428;2024-03-02T13:46:50;18.70;;;17.80;;
3943;SDS011;1986;52.546;13.428;2024-03-02T13:49:24;18.77;;;17.87;;
3943;SDS011;1986;52.546;13.428;2024-03-02T13:51:58;17.63;;;16.73;;
3943;SDS011;1986;52.546;13.428;2024-03-02T13:54:29;17.40;;;16.60;;
3943;SDS011;1986;52.546;13.428;2024-03-02T13:56:58;17.37;;;16.60;;
3943;SDS011;1986;52.546;13.428;2024-03-02T13:59:30;17.30;;;16.60;;
3943;SDS011;1986;52.546;13.428;2024-03-02T14:02:09;17.70;;;16.90;;
3943;SDS011;1986;52.546;13.428;2024-03-02T14:04:41;17.40;;;16.60;;
3943;SDS011;1986;52.546;13.428;2024-03-02T14:07:08;17.40;;;16.60;;
3943;SDS011;1986;52.546;13.428;2024-03-02T14:09:38;17.20;;;16.40;;
3943;SDS011;1986;52.546;13.428;2024-03-02T14:12:07;17.10;;;16.30;;
3943;SDS011;1986;52.546;13.428;2024-03-02T14:14:38;17.80;;;16.90;;
3943;SDS011;1986;52.546;13.428;2024-03-02T14:17:20;17.93;;;17.13;;
3943;SDS011;1986;52.546;13.428;2024-03-02T14:19:48;17.47;;;16.67;;
3943;SDS011;1986;52.546;13.428;2024-03-02T14:22:16;17.73;;;16.93;;
3943;SDS011;1986;52.546;13.428;2024-03-02T14:24:47;17.90;;;17.00;;
3943;SDS011;1986;52.546;13.428;2024-03-02T14:27:21;18.20;;;17.30;;
3943;SDS011;1986;52.546;13.428;2024-03-02T14:29:53;17.80;;;17.00;;
3943;SDS011;1986;52.546;13.428;2024-03-02T14:32:27;17.33;;;16.53;;
3943;SDS011;1986;52.546;13.428;2024-03-02T14:35:09;17.80;;;16.90;;
3943;SDS011;1986;52.546;13.428;2024-03-02T14:37:36;17.80;;;17.00;;
3943;SDS011;1986;52.546;13.428;2024-03-02T14:42:58;18.20;;;17.40;;
3943;SDS011;1986;52.546;13.428;2024-03-02T14:45:26;18.10;;;17.30;;
3943;SDS011;1986;52.546;13.428;2024-03-02T14:47:54;17.83;;;17.03;;
3943;SDS011;1986;52.546;13.428;2024-03-02T14:50:26;18.17;;;17.37;;
3943;SDS011;1986;52.546;13.428;2024-03-02T14:52:56;17.80;;;17.00;;
3943;SDS011;1986;52.546;13.428;2024-03-02T14:55:57;17.57;;;16.77;;
3943;SDS011;1986;52.546;13.428;2024-03-02T14:58:31;17.60;;;16.80;;
3943;SDS011;1986;52.546;13.428;2024-03-02T15:01:02;18.83;;;17.93;;
3943;SDS011;1986;52.546;13.428;2024-03-02T15:03:48;18.27;;;17.47;;
3943;SDS011;1986;52.546;13.428;2024-03-02T15:06:16;18.70;;;17.90;;
3943;SDS011;1986;52.546;13.428;2024-03-02T15:08:47;17.70;;;17.00;;
3943;SDS011;1986;52.546;13.428;2024-03-02T15:11:24;17.10;;;16.40;;
3943;SDS011;1986;52.546;13.428;2024-03-02T15:13:53;18.07;;;17.30;;
3943;SDS011;1986;52.546;13.428;2024-03-02T15:16:26;18.00;;;17.20;;
3943;SDS011;1986;52.546;13.428;2024-03-02T15:18:56;17.70;;;17.00;;
3943;SDS011;1986;52.546;13.428;2024-03-02T15:21:23;17.30;;;16.60;;
3943;SDS011;1986;52.546;13.428;2024-03-02T15:23:55;17.43;;;16.67;;
3943;SDS011;1986;52.546;13.428;2024-03-02T15:29:25;17.50;;;16.70;;
3943;SDS011;1986;52.546;13.428;2024-03-02T15:31:54;17.20;;;16.50;;
3943;SDS011;1986;52.546;13.428;2024-03-02T15:34:25;16.90;;;16.20;;
3943;SDS011;1986;52.546;13.428;2024-03-02T15:36:58;16.90;;;16.20;;
3943;SDS011;1986;52.546;13.428;2024-03-02T15:39:30;17.37;;;16.67;;
3943;SDS011;1986;52.546;13.428;2024-03-02T15:41:58;17.10;;;16.40;;
3943;SDS011;1986;52.546;13.428;2024-03-02T15:44:28;17.10;;;16.40;;
3943;SDS011;1986;52.546;13.428;2024-03-02T15:46:56;17.30;;;16.60;;
3943;SDS011;1986;52.546;13.428;2024-03-02T15:49:25;17.10;;;16.40;;
3943;SDS011;1986;52.546;13.428;2024-03-02T15:52:12;16.70;;;16.00;;
3943;SDS011;1986;52.546;13.428;2024-03-02T15:54:43;16.63;;;16.03;;
3943;SDS011;1986;52.546;13.428;2024-03-02T15:57:14;17.00;;;16.30;;
3943;SDS011;1986;52.546;13.428;2024-03-02T15:59:43;16.70;;;16.00;;
3943;SDS011;1986;52.546;13.428;2024-03-02T16:02:19;16.30;;;15.60;;
3943;SDS011;1986;52.546;13.428;2024-03-02T16:04:47;16.77;;;16.07;;